sensor_id;sensor_type;location;lat;lon;timestamp;P1;durP1;ratioP1;P2;durP2;ratioP2
49460;SDS011;35355;49.198;-0.368;2023-02-15T00:01:50;38.15;;;17.45;;
49460;SDS011;35355;49.198;-0.368;2023-02-15T00:04:18;35.05;;;16.27;;
49460;SDS011;35355;49.198;-0.368;2023-02-15T00:06:45;30.80;;;15.48;;
49460;SDS011;35355;49.198;-0.368;2023-02-15T00:09:10;37.75;;;16.70;;
49460;SDS011;35355;49.198;-0.368;2023-02-15T00:11:36;37.17;;;16.95;;
49460;SDS011;35355;49.198;-0.368;2023-02-15T00:14:06;34.00;;;15.48;;
49460;SDS011;35355;49.198;-0.368;2023-02-15T00:16:45;33.30;;;16.45;;
49460;SDS011;35355;49.198;-0.368;2023-02-15T00:19:12;43.47;;;16.63;;
49460;SDS011;35355;49.198;-0.368;2023-02-15T00:21:39;32.80;;;15.70;;
49460;SDS011;35355;49.198;-0.368;2023-02-15T00:24:06;41.45;;;16.45;;
49460;SDS011;35355;49.198;-0.368;2023-02-15T00:26:33;36.78;;;16.95;;
49460;SDS011;35355;49.198;-0.368;2023-02-15T00:28:58;37.10;;;16.83;;
49460;SDS011;35355;49.198;-0.368;2023-02-15T00:31:24;33.13;;;16.75;;
49460;SDS011;35355;49.198;-0.368;2023-02-15T00:33:50;29.30;;;16.48;;
49460;SDS011;35355;49.198;-0.368;2023-02-15T00:36:16;36.78;;;17.63;;
49460;SDS011;35355;49.198;-0.368;2023-02-15T00:38:41;38.08;;;17.95;;
49460;SDS011;35355;49.198;-0.368;2023-02-15T00:41:07;36.13;;;17.10;;
49460;SDS011;35355;49.198;-0.368;2023-02-15T00:43:33;33.17;;;15.95;;
49460;SDS011;35355;49.198;-0.368;2023-02-15T00:45:59;38.40;;;17.23;;
49460;SDS011;35355;49.198;-0.368;2023-02-15T00:48:25;34.30;;;16.83;;
49460;SDS011;35355;49.198;-0.368;2023-02-15T00:50:52;39.30;;;17.67;;
49460;SDS011;35355;49.198;-0.368;2023-02-15T00:53:20;40.47;;;18.15;;
49460;SDS011;35355;49.198;-0.368;2023-02-15T00:55:45;41.83;;;18.77;;
49460;SDS011;35355;49.198;-0.368;2023-02-15T00:58:11;38.92;;;18.45;;
49460;SDS011;35355;49.198;-0.368;2023-02-15T01:00:38;35.10;;;16.88;;
49460;SDS011;35355;49.198;-0.368;2023-02-15T01:03:05;42.50;;;18.73;;
49460;SDS011;35355;49.198;-0.368;2023-02-15T01:05:31;37.53;;;17.88;;
49460;SDS011;35355;49.198;-0.368;2023-02-15T01:07:57;32.58;;;16.20;;
49460;SDS011;35355;49.198;-0.368;2023-02-15T01:10:23;37.78;;;17.20;;
49460;SDS011;35355;49.198;-0.368;2023-02-15T01:12:50;33.80;;;16.17;;
49460;SDS011;35355;49.198;-0.368;2023-02-15T01:15:16;31.52;;;16.27;;
49460;SDS011;35355;49.198;-0.368;2023-02-15T01:17:41;31.20;;;17.45;;
49460;SDS011;35355;49.198;-0.368;2023-02-15T01:20:09;33.10;;;15.88;;
49460;SDS011;35355;49.198;-0.368;2023-02-15T01:22:35;31.77;;;15.98;;
49460;SDS011;35355;49.198;-0.368;2023-02-15T01:25:00;37.25;;;16.60;;
49460;SDS011;35355;49.198;-0.368;2023-02-15T01:27:25;38.70;;;17.70;;
49460;SDS011;35355;49.198;-0.368;2023-02-15T01:29:51;37.38;;;16.90;;
49460;SDS011;35355;49.198;-0.368;2023-02-15T01:32:16;36.88;;;17.55;;
49460;SDS011;35355;49.198;-0.368;2023-02-15T01:34:41;41.00;;;18.67;;
49460;SDS011;35355;49.198;-0.368;2023-02-15T01:37:07;35.13;;;16.88;;
49460;SDS011;35355;49.198;-0.368;2023-02-15T01:39:32;36.65;;;17.73;;
49460;SDS011;35355;49.198;-0.368;2023-02-15T01:41:57;47.63;;;18.92;;
49460;SDS011;35355;49.198;-0.368;2023-02-15T01:47:13;36.30;;;17.52;;
49460;SDS011;35355;49.198;-0.368;2023-02-15T01:50:11;41.22;;;18.67;;
49460;SDS011;35355;49.198;-0.368;2023-02-15T01:52:46;34.70;;;17.38;;
49460;SDS011;35355;49.198;-0.368;2023-02-15T01:55:16;41.42;;;19.20;;
49460;SDS011;35355;49.198;-0.368;2023-02-15T01:57:42;46.53;;;20.60;;
49460;SDS011;35355;49.198;-0.368;2023-02-15T02:00:10;45.55;;;19.50;;
49460;SDS011;35355;49.198;-0.368;2023-02-15T02:02:37;40.50;;;19.23;;
49460;SDS011;35355;49.198;-0.368;2023-02-15T02:05:03;42.45;;;20.40;;
49460;SDS011;35355;49.198;-0.368;2023-02-15T02:07:32;41.13;;;17.95;;
49460;SDS011;35355;49.198;-0.368;2023-02-15T02:10:03;41.13;;;19.55;;
49460;SDS011;35355;49.198;-0.368;2023-02-15T02:12:30;43.00;;;18.90;;
49460;SDS011;35355;49.198;-0.368;2023-02-15T02:14:56;40.88;;;19.02;;
49460;SDS011;35355;49.198;-0.368;2023-02-15T02:20:15;46.17;;;19.70;;
49460;SDS011;35355;49.198;-0.368;2023-02-15T02:34:15;36.63;;;18.65;;
49460;SDS011;35355;49.198;-0.368;2023-02-15T02:42:43;37.35;;;18.45;;
49460;SDS011;35355;49.198;-0.368;2023-02-15T02:45:22;46.55;;;19.73;;
49460;SDS011;35355;49.198;-0.368;2023-02-15T02:50:38;42.45;;;17.38;;
49460;SDS011;35355;49.198;-0.368;2023-02-15T02:53:04;39.80;;;17.48;;
49460;SDS011;35355;49.198;-0.368;2023-02-15T02:58:04;33.78;;;16.27;;
49460;SDS011;35355;49.198;-0.368;2023-02-15T03:00:31;32.35;;;15.75;;
49460;SDS011;35355;49.198;-0.368;2023-02-15T03:06:06;36.22;;;17.15;;
49460;SDS011;35355;49.198;-0.368;2023-02-15T03:08:43;32.30;;;16.45;;
49460;SDS011;35355;49.198;-0.368;2023-02-15T03:11:12;36.40;;;16.20;;
49460;SDS011;35355;49.198;-0.368;2023-02-15T03:13:38;34.15;;;15.73;;
49460;SDS011;35355;49.198;-0.368;2023-02-15T03:16:04;33.35;;;16.17;;
49460;SDS011;35355;49.198;-0.368;2023-02-15T03:18:51;30.58;;;15.27;;
49460;SDS011;35355;49.198;-0.368;2023-02-15T03:21:32;32.80;;;15.07;;
49460;SDS011;35355;49.198;-0.368;2023-02-15T03:24:10;33.42;;;15.18;;
49460;SDS011;35355;49.198;-0.368;2023-02-15T03:26:41;32.97;;;16.13;;
49460;SDS011;35355;49.198;-0.368;2023-02-15T03:29:10;31.08;;;13.90;;
49460;SDS011;35355;49.198;-0.368;2023-02-15T03:31:38;27.75;;;14.23;;
49460;SDS011;35355;49.198;-0.368;2023-02-15T03:34:08;32.40;;;14.13;;
49460;SDS011;35355;49.198;-0.368;2023-02-15T03:41:49;34.42;;;16.55;;
49460;SDS011;35355;49.198;-0.368;2023-02-15T03:44:26;30.80;;;15.02;;
49460;SDS011;35355;49.198;-0.368;2023-02-15T03:47:04;34.60;;;15.98;;
49460;SDS011;35355;49.198;-0.368;2023-02-15T03:49:45;35.70;;;16.25;;
49460;SDS011;35355;49.198;-0.368;2023-02-15T03:52:17;30.60;;;14.63;;
49460;SDS011;35355;49.198;-0.368;2023-02-15T03:54:45;28.35;;;14.57;;
49460;SDS011;35355;49.198;-0.368;2023-02-15T04:00:08;30.27;;;13.88;;
49460;SDS011;35355;49.198;-0.368;2023-02-15T04:05:33;31.88;;;15.18;;
49460;SDS011;35355;49.198;-0.368;2023-02-15T04:07:58;30.63;;;15.23;;
49460;SDS011;35355;49.198;-0.368;2023-02-15T04:10:24;33.17;;;14.18;;
49460;SDS011;35355;49.198;-0.368;2023-02-15T04:13:07;37.80;;;15.55;;
49460;SDS011;35355;49.198;-0.368;2023-02-15T04:15:33;31.02;;;14.77;;
49460;SDS011;35355;49.198;-0.368;2023-02-15T04:18:17;26.60;;;14.07;;
49460;SDS011;35355;49.198;-0.368;2023-02-15T04:20:45;27.42;;;14.30;;
49460;SDS011;35355;49.198;-0.368;2023-02-15T04:23:29;32.60;;;15.02;;
49460;SDS011;35355;49.198;-0.368;2023-02-15T04:26:13;33.05;;;13.95;;
49460;SDS011;35355;49.198;-0.368;2023-02-15T04:28:39;30.65;;;14.48;;
49460;SDS011;35355;49.198;-0.368;2023-02-15T04:31:04;31.35;;;14.98;;
49460;SDS011;35355;49.198;-0.368;2023-02-15T04:33:29;31.38;;;14.10;;
49460;SDS011;35355;49.198;-0.368;2023-02-15T04:35:55;29.65;;;13.73;;
49460;SDS011;35355;49.198;-0.368;2023-02-15T04:38:21;33.33;;;17.15;;
49460;SDS011;35355;49.198;-0.368;2023-02-15T04:40:50;25.48;;;13.55;;
49460;SDS011;35355;49.198;-0.368;2023-02-15T04:43:19;29.85;;;14.35;;
49460;SDS011;35355;49.198;-0.368;2023-02-15T04:45:48;33.55;;;14.75;;
49460;SDS011;35355;49.198;-0.368;2023-02-15T04:48:15;30.70;;;15.55;;
49460;SDS011;35355;49.198;-0.368;2023-02-15T04:50:41;31.35;;;14.77;;
49460;SDS011;35355;49.198;-0.368;2023-02-15T04:53:06;33.38;;;15.35;;
49460;SDS011;35355;49.198;-0.368;2023-02-15T04:55:32;33.28;;;15.00;;
49460;SDS011;35355;49.198;-0.368;2023-02-15T04:57:57;29.40;;;15.05;;
49460;SDS011;35355;49.198;-0.368;2023-02-15T05:00:23;27.08;;;14.27;;
49460;SDS011;35355;49.198;-0.368;2023-02-15T05:02:48;33.60;;;15.30;;
49460;SDS011;35355;49.198;-0.368;2023-02-15T05:05:13;29.95;;;14.80;;
49460;SDS011;35355;49.198;-0.368;2023-02-15T05:07:40;29.33;;;14.40;;
49460;SDS011;35355;49.198;-0.368;2023-02-15T05:10:05;33.78;;;15.40;;
49460;SDS011;35355;49.198;-0.368;2023-02-15T05:12:31;32.40;;;14.38;;
49460;SDS011;35355;49.198;-0.368;2023-02-15T05:14:56;28.38;;;13.68;;
49460;SDS011;35355;49.198;-0.368;2023-02-15T05:17:22;32.22;;;14.38;;
49460;SDS011;35355;49.198;-0.368;2023-02-15T05:19:47;26.67;;;12.95;;
49460;SDS011;35355;49.198;-0.368;2023-02-15T05:22:12;29.20;;;13.60;;
49460;SDS011;35355;49.198;-0.368;2023-02-15T05:24:38;26.42;;;14.45;;
49460;SDS011;35355;49.198;-0.368;2023-02-15T05:27:22;26.05;;;12.93;;
49460;SDS011;35355;49.198;-0.368;2023-02-15T05:30:06;31.90;;;15.43;;
49460;SDS011;35355;49.198;-0.368;2023-02-15T05:52:07;28.52;;;13.57;;
49460;SDS011;35355;49.198;-0.368;2023-02-15T05:54:33;32.38;;;13.77;;
49460;SDS011;35355;49.198;-0.368;2023-02-15T05:56:58;30.27;;;13.85;;
49460;SDS011;35355;49.198;-0.368;2023-02-15T05:59:23;34.03;;;15.55;;
49460;SDS011;35355;49.198;-0.368;2023-02-15T06:01:49;38.75;;;15.23;;
49460;SDS011;35355;49.198;-0.368;2023-02-15T06:04:14;32.35;;;15.20;;
49460;SDS011;35355;49.198;-0.368;2023-02-15T06:06:40;26.50;;;14.43;;
49460;SDS011;35355;49.198;-0.368;2023-02-15T06:09:05;32.42;;;14.60;;
49460;SDS011;35355;49.198;-0.368;2023-02-15T06:11:30;31.60;;;14.90;;
49460;SDS011;35355;49.198;-0.368;2023-02-15T06:13:56;24.40;;;13.05;;
49460;SDS011;35355;49.198;-0.368;2023-02-15T06:16:21;25.52;;;13.15;;
49460;SDS011;35355;49.198;-0.368;2023-02-15T06:18:47;25.38;;;13.57;;
49460;SDS011;35355;49.198;-0.368;2023-02-15T06:21:12;28.20;;;13.60;;
49460;SDS011;35355;49.198;-0.368;2023-02-15T06:23:38;28.88;;;13.25;;
49460;SDS011;35355;49.198;-0.368;2023-02-15T06:26:03;31.80;;;14.90;;
49460;SDS011;35355;49.198;-0.368;2023-02-15T06:28:29;33.17;;;14.48;;
49460;SDS011;35355;49.198;-0.368;2023-02-15T06:30:54;29.25;;;14.10;;
49460;SDS011;35355;49.198;-0.368;2023-02-15T06:33:19;33.92;;;13.48;;
49460;SDS011;35355;49.198;-0.368;2023-02-15T06:35:48;30.70;;;14.88;;
49460;SDS011;35355;49.198;-0.368;2023-02-15T06:38:13;29.38;;;14.00;;
49460;SDS011;35355;49.198;-0.368;2023-02-15T06:40:38;30.08;;;13.20;;
49460;SDS011;35355;49.198;-0.368;2023-02-15T06:43:04;29.10;;;14.60;;
49460;SDS011;35355;49.198;-0.368;2023-02-15T06:45:29;23.80;;;12.00;;
49460;SDS011;35355;49.198;-0.368;2023-02-15T06:47:54;26.70;;;13.68;;
49460;SDS011;35355;49.198;-0.368;2023-02-15T06:50:20;26.90;;;13.77;;
49460;SDS011;35355;49.198;-0.368;2023-02-15T06:52:45;34.55;;;15.68;;
49460;SDS011;35355;49.198;-0.368;2023-02-15T06:55:10;29.35;;;14.13;;
49460;SDS011;35355;49.198;-0.368;2023-02-15T06:57:36;31.65;;;14.18;;
49460;SDS011;35355;49.198;-0.368;2023-02-15T07:00:02;30.77;;;14.18;;
49460;SDS011;35355;49.198;-0.368;2023-02-15T07:02:29;26.45;;;14.77;;
49460;SDS011;35355;49.198;-0.368;2023-02-15T07:04:56;26.02;;;12.32;;
49460;SDS011;35355;49.198;-0.368;2023-02-15T07:07:21;27.55;;;13.43;;
49460;SDS011;35355;49.198;-0.368;2023-02-15T07:09:46;26.63;;;13.27;;
49460;SDS011;35355;49.198;-0.368;2023-02-15T07:12:12;29.23;;;13.38;;
49460;SDS011;35355;49.198;-0.368;2023-02-15T07:14:56;28.92;;;14.02;;
49460;SDS011;35355;49.198;-0.368;2023-02-15T07:17:23;27.48;;;13.38;;
49460;SDS011;35355;49.198;-0.368;2023-02-15T07:19:48;29.45;;;14.65;;
49460;SDS011;35355;49.198;-0.368;2023-02-15T07:22:14;30.02;;;14.45;;
49460;SDS011;35355;49.198;-0.368;2023-02-15T07:24:39;26.58;;;13.88;;
49460;SDS011;35355;49.198;-0.368;2023-02-15T07:27:06;32.90;;;13.70;;
49460;SDS011;35355;49.198;-0.368;2023-02-15T07:29:32;30.27;;;13.57;;
49460;SDS011;35355;49.198;-0.368;2023-02-15T07:31:57;31.42;;;14.20;;
49460;SDS011;35355;49.198;-0.368;2023-02-15T07:34:22;29.10;;;13.85;;
49460;SDS011;35355;49.198;-0.368;2023-02-15T07:36:50;35.72;;;14.00;;
49460;SDS011;35355;49.198;-0.368;2023-02-15T07:39:15;28.83;;;14.35;;
49460;SDS011;35355;49.198;-0.368;2023-02-15T07:41:41;30.45;;;13.82;;
49460;SDS011;35355;49.198;-0.368;2023-02-15T07:44:10;24.92;;;12.95;;
49460;SDS011;35355;49.198;-0.368;2023-02-15T07:46:37;30.65;;;14.13;;
49460;SDS011;35355;49.198;-0.368;2023-02-15T07:49:02;29.15;;;13.48;;
49460;SDS011;35355;49.198;-0.368;2023-02-15T07:51:28;27.00;;;11.75;;
49460;SDS011;35355;49.198;-0.368;2023-02-15T07:53:54;26.48;;;12.07;;
49460;SDS011;35355;49.198;-0.368;2023-02-15T07:56:20;24.40;;;13.20;;
49460;SDS011;35355;49.198;-0.368;2023-02-15T07:58:45;25.17;;;11.98;;
49460;SDS011;35355;49.198;-0.368;2023-02-15T08:01:18;24.70;;;12.48;;
49460;SDS011;35355;49.198;-0.368;2023-02-15T08:03:45;27.02;;;12.43;;
49460;SDS011;35355;49.198;-0.368;2023-02-15T08:06:10;26.35;;;13.07;;
49460;SDS011;35355;49.198;-0.368;2023-02-15T08:08:39;24.98;;;11.50;;
49460;SDS011;35355;49.198;-0.368;2023-02-15T08:14:00;26.65;;;12.25;;
49460;SDS011;35355;49.198;-0.368;2023-02-15T08:19:26;22.92;;;10.70;;
49460;SDS011;35355;49.198;-0.368;2023-02-15T08:21:56;22.52;;;11.20;;
49460;SDS011;35355;49.198;-0.368;2023-02-15T08:24:23;26.67;;;12.00;;
49460;SDS011;35355;49.198;-0.368;2023-02-15T08:26:51;29.92;;;12.55;;
49460;SDS011;35355;49.198;-0.368;2023-02-15T08:29:18;20.48;;;10.50;;
49460;SDS011;35355;49.198;-0.368;2023-02-15T08:31:47;22.20;;;10.55;;
49460;SDS011;35355;49.198;-0.368;2023-02-15T08:34:15;24.55;;;11.32;;
49460;SDS011;35355;49.198;-0.368;2023-02-15T08:36:42;22.52;;;10.45;;
49460;SDS011;35355;49.198;-0.368;2023-02-15T08:39:09;22.13;;;12.02;;
49460;SDS011;35355;49.198;-0.368;2023-02-15T08:41:36;21.38;;;11.57;;
49460;SDS011;35355;49.198;-0.368;2023-02-15T08:44:04;23.85;;;11.55;;
49460;SDS011;35355;49.198;-0.368;2023-02-15T08:46:32;23.65;;;11.15;;
49460;SDS011;35355;49.198;-0.368;2023-02-15T08:49:00;20.73;;;11.05;;
49460;SDS011;35355;49.198;-0.368;2023-02-15T08:51:27;23.05;;;10.68;;
49460;SDS011;35355;49.198;-0.368;2023-02-15T08:53:55;24.88;;;11.13;;
49460;SDS011;35355;49.198;-0.368;2023-02-15T08:56:23;26.25;;;11.88;;
49460;SDS011;35355;49.198;-0.368;2023-02-15T08:58:52;24.55;;;11.63;;
49460;SDS011;35355;49.198;-0.368;2023-02-15T09:01:19;24.85;;;11.48;;
49460;SDS011;35355;49.198;-0.368;2023-02-15T09:03:47;31.58;;;11.73;;
49460;SDS011;35355;49.198;-0.368;2023-02-15T09:06:15;27.10;;;12.43;;
49460;SDS011;35355;49.198;-0.368;2023-02-15T09:08:41;28.95;;;12.35;;
49460;SDS011;35355;49.198;-0.368;2023-02-15T09:11:11;27.98;;;12.75;;
49460;SDS011;35355;49.198;-0.368;2023-02-15T09:13:41;24.48;;;10.77;;
49460;SDS011;35355;49.198;-0.368;2023-02-15T09:16:08;25.15;;;12.00;;
49460;SDS011;35355;49.198;-0.368;2023-02-15T09:18:35;23.95;;;11.57;;
49460;SDS011;35355;49.198;-0.368;2023-02-15T09:21:10;20.05;;;9.60;;
49460;SDS011;35355;49.198;-0.368;2023-02-15T09:23:40;19.60;;;10.10;;
49460;SDS011;35355;49.198;-0.368;2023-02-15T09:26:07;20.83;;;10.65;;
49460;SDS011;35355;49.198;-0.368;2023-02-15T09:28:37;20.98;;;10.63;;
49460;SDS011;35355;49.198;-0.368;2023-02-15T09:31:19;22.67;;;10.30;;
49460;SDS011;35355;49.198;-0.368;2023-02-15T09:33:46;20.60;;;10.98;;
49460;SDS011;35355;49.198;-0.368;2023-02-15T09:36:17;25.13;;;10.57;;
49460;SDS011;35355;49.198;-0.368;2023-02-15T09:38:44;25.23;;;9.68;;
49460;SDS011;35355;49.198;-0.368;2023-02-15T09:44:11;19.92;;;10.07;;
49460;SDS011;35355;49.198;-0.368;2023-02-15T09:57:46;23.13;;;10.90;;
49460;SDS011;35355;49.198;-0.368;2023-02-15T10:06:42;19.70;;;9.77;;
49460;SDS011;35355;49.198;-0.368;2023-02-15T10:28:04;16.25;;;8.65;;
49460;SDS011;35355;49.198;-0.368;2023-02-15T10:30:46;19.48;;;8.30;;
49460;SDS011;35355;49.198;-0.368;2023-02-15T10:33:20;17.10;;;8.30;;
49460;SDS011;35355;49.198;-0.368;2023-02-15T10:41:57;17.58;;;7.88;;
49460;SDS011;35355;49.198;-0.368;2023-02-15T10:44:47;17.58;;;8.90;;
49460;SDS011;35355;49.198;-0.368;2023-02-15T11:06:24;104.53;;;40.67;;
49460;SDS011;35355;49.198;-0.368;2023-02-15T11:09:02;38.35;;;17.30;;
49460;SDS011;35355;49.198;-0.368;2023-02-15T11:11:34;26.23;;;12.70;;
49460;SDS011;35355;49.198;-0.368;2023-02-15T11:14:05;19.35;;;9.93;;
49460;SDS011;35355;49.198;-0.368;2023-02-15T11:16:40;20.73;;;9.65;;
49460;SDS011;35355;49.198;-0.368;2023-02-15T11:19:20;19.40;;;9.05;;
49460;SDS011;35355;49.198;-0.368;2023-02-15T11:21:50;16.90;;;8.85;;
49460;SDS011;35355;49.198;-0.368;2023-02-15T11:24:20;18.40;;;8.05;;
49460;SDS011;35355;49.198;-0.368;2023-02-15T11:26:54;19.33;;;8.13;;
49460;SDS011;35355;49.198;-0.368;2023-02-15T11:31:59;13.20;;;7.95;;
49460;SDS011;35355;49.198;-0.368;2023-02-15T11:34:33;18.25;;;9.20;;
49460;SDS011;35355;49.198;-0.368;2023-02-15T11:37:21;21.10;;;9.45;;
49460;SDS011;35355;49.198;-0.368;2023-02-15T11:39:56;13.82;;;7.35;;
49460;SDS011;35355;49.198;-0.368;2023-02-15T11:42:22;19.67;;;9.23;;
49460;SDS011;35355;49.198;-0.368;2023-02-15T11:45:04;16.40;;;8.30;;
49460;SDS011;35355;49.198;-0.368;2023-02-15T11:47:42;15.98;;;8.75;;
49460;SDS011;35355;49.198;-0.368;2023-02-15T11:50:14;16.98;;;8.77;;
49460;SDS011;35355;49.198;-0.368;2023-02-15T11:52:43;15.35;;;8.85;;
49460;SDS011;35355;49.198;-0.368;2023-02-15T11:55:12;18.25;;;7.75;;
49460;SDS011;35355;49.198;-0.368;2023-02-15T11:57:43;21.38;;;8.75;;
49460;SDS011;35355;49.198;-0.368;2023-02-15T12:00:43;15.52;;;8.23;;
49460;SDS011;35355;49.198;-0.368;2023-02-15T12:05:49;19.25;;;9.43;;
49460;SDS011;35355;49.198;-0.368;2023-02-15T12:08:21;18.00;;;8.90;;
49460;SDS011;35355;49.198;-0.368;2023-02-15T12:11:07;16.70;;;8.90;;
49460;SDS011;35355;49.198;-0.368;2023-02-15T12:13:59;19.63;;;9.15;;
49460;SDS011;35355;49.198;-0.368;2023-02-15T12:16:40;13.05;;;7.93;;
49460;SDS011;35355;49.198;-0.368;2023-02-15T12:21:49;16.48;;;8.48;;
49460;SDS011;35355;49.198;-0.368;2023-02-15T12:24:24;15.82;;;8.55;;
49460;SDS011;35355;49.198;-0.368;2023-02-15T12:27:35;17.92;;;8.20;;
49460;SDS011;35355;49.198;-0.368;2023-02-15T12:29:46;22.48;;;9.18;;
49460;SDS011;35355;49.198;-0.368;2023-02-15T12:32:17;19.80;;;8.38;;
49460;SDS011;35355;49.198;-0.368;2023-02-15T12:34:51;17.50;;;9.10;;
49460;SDS011;35355;49.198;-0.368;2023-02-15T12:37:26;14.68;;;8.20;;
49460;SDS011;35355;49.198;-0.368;2023-02-15T12:42:18;18.88;;;9.43;;
49460;SDS011;35355;49.198;-0.368;2023-02-15T12:45:01;17.60;;;8.55;;
49460;SDS011;35355;49.198;-0.368;2023-02-15T12:47:28;15.48;;;8.15;;
49460;SDS011;35355;49.198;-0.368;2023-02-15T12:50:07;15.95;;;8.35;;
49460;SDS011;35355;49.198;-0.368;2023-02-15T12:52:51;16.33;;;8.52;;
49460;SDS011;35355;49.198;-0.368;2023-02-15T12:55:30;14.38;;;7.72;;
49460;SDS011;35355;49.198;-0.368;2023-02-15T12:58:15;18.83;;;8.55;;
49460;SDS011;35355;49.198;-0.368;2023-02-15T13:00:43;13.40;;;8.23;;
49460;SDS011;35355;49.198;-0.368;2023-02-15T13:03:15;14.48;;;8.20;;
49460;SDS011;35355;49.198;-0.368;2023-02-15T13:05:44;18.63;;;9.20;;
49460;SDS011;35355;49.198;-0.368;2023-02-15T13:08:21;12.73;;;7.55;;
49460;SDS011;35355;49.198;-0.368;2023-02-15T13:10:59;14.25;;;7.78;;
49460;SDS011;35355;49.198;-0.368;2023-02-15T13:13:28;15.02;;;7.82;;
49460;SDS011;35355;49.198;-0.368;2023-02-15T13:16:00;13.98;;;8.25;;
49460;SDS011;35355;49.198;-0.368;2023-02-15T13:18:33;15.40;;;7.13;;
49460;SDS011;35355;49.198;-0.368;2023-02-15T13:21:12;13.20;;;7.82;;
49460;SDS011;35355;49.198;-0.368;2023-02-15T13:23:47;13.77;;;7.70;;
49460;SDS011;35355;49.198;-0.368;2023-02-15T13:26:18;15.60;;;8.43;;
49460;SDS011;35355;49.198;-0.368;2023-02-15T13:28:47;13.75;;;7.10;;
49460;SDS011;35355;49.198;-0.368;2023-02-15T13:31:20;14.15;;;7.05;;
49460;SDS011;35355;49.198;-0.368;2023-02-15T13:36:48;16.23;;;7.72;;
49460;SDS011;35355;49.198;-0.368;2023-02-15T13:39:37;12.65;;;7.40;;
49460;SDS011;35355;49.198;-0.368;2023-02-15T14:01:58;13.27;;;6.18;;
49460;SDS011;35355;49.198;-0.368;2023-02-15T14:24:37;14.73;;;7.15;;
49460;SDS011;35355;49.198;-0.368;2023-02-15T14:29:57;13.30;;;5.65;;
49460;SDS011;35355;49.198;-0.368;2023-02-15T14:32:32;13.45;;;7.05;;
49460;SDS011;35355;49.198;-0.368;2023-02-15T14:35:02;18.65;;;7.10;;
49460;SDS011;35355;49.198;-0.368;2023-02-15T14:43:27;12.15;;;5.85;;
49460;SDS011;35355;49.198;-0.368;2023-02-15T14:46:15;13.23;;;5.93;;
49460;SDS011;35355;49.198;-0.368;2023-02-15T14:49:25;17.98;;;6.22;;
49460;SDS011;35355;49.198;-0.368;2023-02-15T14:56:47;10.77;;;5.18;;
49460;SDS011;35355;49.198;-0.368;2023-02-15T14:59:43;12.57;;;5.72;;
49460;SDS011;35355;49.198;-0.368;2023-02-15T15:04:44;11.65;;;5.20;;
49460;SDS011;35355;49.198;-0.368;2023-02-15T15:07:21;10.52;;;5.90;;
49460;SDS011;35355;49.198;-0.368;2023-02-15T15:09:59;14.52;;;5.78;;
49460;SDS011;35355;49.198;-0.368;2023-02-15T15:14:59;9.60;;;5.57;;
49460;SDS011;35355;49.198;-0.368;2023-02-15T15:22:40;11.93;;;5.22;;
49460;SDS011;35355;49.198;-0.368;2023-02-15T15:25:11;12.52;;;5.30;;
49460;SDS011;35355;49.198;-0.368;2023-02-15T15:27:58;11.48;;;4.40;;
49460;SDS011;35355;49.198;-0.368;2023-02-15T15:41:02;9.77;;;5.00;;
49460;SDS011;35355;49.198;-0.368;2023-02-15T15:49:20;10.15;;;5.88;;
49460;SDS011;35355;49.198;-0.368;2023-02-15T15:51:49;10.32;;;4.97;;
49460;SDS011;35355;49.198;-0.368;2023-02-15T15:54:15;11.68;;;6.68;;
49460;SDS011;35355;49.198;-0.368;2023-02-15T15:56:50;14.07;;;6.82;;
49460;SDS011;35355;49.198;-0.368;2023-02-15T15:59:20;12.30;;;6.57;;
49460;SDS011;35355;49.198;-0.368;2023-02-15T16:01:49;11.43;;;6.18;;
49460;SDS011;35355;49.198;-0.368;2023-02-15T16:04:25;14.52;;;6.50;;
49460;SDS011;35355;49.198;-0.368;2023-02-15T16:06:58;15.32;;;6.88;;
49460;SDS011;35355;49.198;-0.368;2023-02-15T16:09:38;12.02;;;5.78;;
49460;SDS011;35355;49.198;-0.368;2023-02-15T16:12:03;14.20;;;5.88;;
49460;SDS011;35355;49.198;-0.368;2023-02-15T16:14:39;14.85;;;6.07;;
49460;SDS011;35355;49.198;-0.368;2023-02-15T16:17:14;16.77;;;6.35;;
49460;SDS011;35355;49.198;-0.368;2023-02-15T16:19:45;12.85;;;6.35;;
49460;SDS011;35355;49.198;-0.368;2023-02-15T16:22:22;15.90;;;6.82;;
49460;SDS011;35355;49.198;-0.368;2023-02-15T16:25:37;11.65;;;6.18;;
49460;SDS011;35355;49.198;-0.368;2023-02-15T16:27:53;11.30;;;5.80;;
49460;SDS011;35355;49.198;-0.368;2023-02-15T16:30:20;11.20;;;5.90;;
49460;SDS011;35355;49.198;-0.368;2023-02-15T16:32:46;13.77;;;6.38;;
49460;SDS011;35355;49.198;-0.368;2023-02-15T16:35:16;12.10;;;6.22;;
49460;SDS011;35355;49.198;-0.368;2023-02-15T16:37:43;13.15;;;6.50;;
49460;SDS011;35355;49.198;-0.368;2023-02-15T16:42:50;15.27;;;7.30;;
49460;SDS011;35355;49.198;-0.368;2023-02-15T16:45:18;15.48;;;7.43;;
49460;SDS011;35355;49.198;-0.368;2023-02-15T16:47:47;12.68;;;7.20;;
49460;SDS011;35355;49.198;-0.368;2023-02-15T16:50:19;14.15;;;7.20;;
49460;SDS011;35355;49.198;-0.368;2023-02-15T16:52:48;12.88;;;7.65;;
49460;SDS011;35355;49.198;-0.368;2023-02-15T16:55:20;15.23;;;8.32;;
49460;SDS011;35355;49.198;-0.368;2023-02-15T16:57:48;11.68;;;6.63;;
49460;SDS011;35355;49.198;-0.368;2023-02-15T17:00:18;17.63;;;8.73;;
49460;SDS011;35355;49.198;-0.368;2023-02-15T17:05:30;18.88;;;8.45;;
49460;SDS011;35355;49.198;-0.368;2023-02-15T17:08:05;17.85;;;7.85;;
49460;SDS011;35355;49.198;-0.368;2023-02-15T17:10:38;22.38;;;9.32;;
49460;SDS011;35355;49.198;-0.368;2023-02-15T17:15:39;18.10;;;10.43;;
49460;SDS011;35355;49.198;-0.368;2023-02-15T17:18:19;19.10;;;9.98;;
49460;SDS011;35355;49.198;-0.368;2023-02-15T17:20:47;18.40;;;9.50;;
49460;SDS011;35355;49.198;-0.368;2023-02-15T17:23:22;21.60;;;11.02;;
49460;SDS011;35355;49.198;-0.368;2023-02-15T17:26:22;22.00;;;9.70;;
49460;SDS011;35355;49.198;-0.368;2023-02-15T17:28:58;21.73;;;10.65;;
49460;SDS011;35355;49.198;-0.368;2023-02-15T17:31:26;22.05;;;10.98;;
49460;SDS011;35355;49.198;-0.368;2023-02-15T17:33:57;21.77;;;11.30;;
49460;SDS011;35355;49.198;-0.368;2023-02-15T17:36:27;22.55;;;12.07;;
49460;SDS011;35355;49.198;-0.368;2023-02-15T17:41:23;23.67;;;12.43;;
49460;SDS011;35355;49.198;-0.368;2023-02-15T17:43:49;22.35;;;11.00;;
49460;SDS011;35355;49.198;-0.368;2023-02-15T17:46:14;30.17;;;12.20;;
49460;SDS011;35355;49.198;-0.368;2023-02-15T17:48:43;23.67;;;11.73;;
49460;SDS011;35355;49.198;-0.368;2023-02-15T17:51:11;24.08;;;13.32;;
49460;SDS011;35355;49.198;-0.368;2023-02-15T17:53:38;29.95;;;14.15;;
49460;SDS011;35355;49.198;-0.368;2023-02-15T17:56:04;23.20;;;12.88;;
49460;SDS011;35355;49.198;-0.368;2023-02-15T17:58:34;26.02;;;12.25;;
49460;SDS011;35355;49.198;-0.368;2023-02-15T18:01:01;23.50;;;12.80;;
49460;SDS011;35355;49.198;-0.368;2023-02-15T18:03:50;24.00;;;13.55;;
49460;SDS011;35355;49.198;-0.368;2023-02-15T18:06:36;28.55;;;12.55;;
49460;SDS011;35355;49.198;-0.368;2023-02-15T18:09:22;22.25;;;12.73;;
49460;SDS011;35355;49.198;-0.368;2023-02-15T18:12:18;26.80;;;13.52;;
49460;SDS011;35355;49.198;-0.368;2023-02-15T18:14:45;26.88;;;13.35;;
49460;SDS011;35355;49.198;-0.368;2023-02-15T18:17:12;26.23;;;13.23;;
49460;SDS011;35355;49.198;-0.368;2023-02-15T18:19:39;26.33;;;14.55;;
49460;SDS011;35355;49.198;-0.368;2023-02-15T18:22:13;26.10;;;14.32;;
49460;SDS011;35355;49.198;-0.368;2023-02-15T18:24:42;23.90;;;13.73;;
49460;SDS011;35355;49.198;-0.368;2023-02-15T18:27:09;27.55;;;14.68;;
49460;SDS011;35355;49.198;-0.368;2023-02-15T18:29:36;25.45;;;13.60;;